createdAt,value
2023-04-23T00:00:05.226Z,12.13
2023-04-23T00:05:16.447Z,12.16
2023-04-23T00:10:19.469Z,12.00
2023-04-23T00:15:23.745Z,11.80
2023-04-23T00:20:26.508Z,11.90
2023-04-23T00:25:29.286Z,11.81
2023-04-23T00:30:33.639Z,11.87
2023-04-23T00:35:36.381Z,12.06
2023-04-23T00:40:39.319Z,12.20
2023-04-23T00:45:43.681Z,11.83
2023-04-23T00:50:47.562Z,11.68
2023-04-23T00:55:50.457Z,11.84
2023-04-23T01:00:55.009Z,12.22
2023-04-23T01:05:58.212Z,12.33
2023-04-23T01:11:01.537Z,11.88
2023-04-23T01:16:05.886Z,11.80
2023-04-23T01:21:11.581Z,11.88
2023-04-23T01:26:15.883Z,11.79
2023-04-23T01:31:19.733Z,11.75
2023-04-23T01:36:23.663Z,11.39
2023-04-23T01:41:29.509Z,11.59
2023-04-23T01:46:32.982Z,10.94
2023-04-23T01:51:36.341Z,11.21
2023-04-23T01:56:40.547Z,11.08
2023-04-23T02:01:45.751Z,10.92
2023-04-23T02:06:51.016Z,10.37
2023-04-23T02:11:55.269Z,10.80
2023-04-23T02:16:58.707Z,10.63
2023-04-23T02:22:01.715Z,10.45
2023-04-23T02:27:05.956Z,10.74
2023-04-23T02:32:08.746Z,10.02
2023-04-23T02:37:12.347Z,10.31
2023-04-23T02:42:16.740Z,10.13
2023-04-23T02:47:19.592Z,10.09
2023-04-23T02:52:22.438Z,10.20
2023-04-23T02:57:26.725Z,10.47
2023-04-23T03:02:29.813Z,10.06
2023-04-23T03:07:32.962Z,10.02
2023-04-23T03:12:37.164Z,9.95
2023-04-23T03:17:40.174Z,9.83
2023-04-23T03:22:43.076Z,9.68
2023-04-23T03:27:47.348Z,9.74
2023-04-23T03:32:51.610Z,9.62
2023-04-23T03:37:54.798Z,10.13
2023-04-23T03:43:00.952Z,10.24
2023-04-23T03:48:21.565Z,10.12
2023-04-23T03:53:24.516Z,10.19
2023-04-23T03:58:47.038Z,10.10
2023-04-23T04:03:50.023Z,10.32
2023-04-23T04:08:53.036Z,10.36
2023-04-23T04:13:57.234Z,10.41
2023-04-23T04:19:01.423Z,10.28
2023-04-23T04:24:04.852Z,10.07
2023-04-23T04:29:09.313Z,9.95
2023-04-23T04:34:14.648Z,10.07
2023-04-23T04:39:17.418Z,10.17
2023-04-23T04:44:21.526Z,10.26
2023-04-23T04:49:24.378Z,10.27
2023-04-23T04:54:27.252Z,10.23
2023-04-23T04:59:31.409Z,10.19
2023-04-23T05:04:34.284Z,10.16
2023-04-23T05:09:37.059Z,10.09
2023-04-23T05:14:41.329Z,10.25
2023-04-23T05:19:44.228Z,10.41
2023-04-23T05:24:47.150Z,10.45
2023-04-23T05:29:51.287Z,10.62
2023-04-23T05:34:54.136Z,10.79
2023-04-23T05:39:57.477Z,10.86
2023-04-23T05:45:01.605Z,10.76
2023-04-23T05:50:04.588Z,10.70
2023-04-23T05:55:08.297Z,10.75
2023-04-23T06:00:14.105Z,10.75
2023-04-23T06:05:17.047Z,10.91
2023-04-23T06:10:20.205Z,11.17
2023-04-23T06:15:27.056Z,11.31
2023-04-23T06:20:30.704Z,11.33
2023-04-23T06:25:33.535Z,11.34
2023-04-23T06:30:37.704Z,11.29
2023-04-23T06:35:40.736Z,11.75
2023-04-23T06:40:43.587Z,11.90
2023-04-23T06:45:47.790Z,11.95
2023-04-23T06:50:50.982Z,11.94
2023-04-23T06:55:53.787Z,11.99
2023-04-23T07:00:59.861Z,12.14
2023-04-23T07:06:05.202Z,12.45
2023-04-23T07:11:08.431Z,12.67
2023-04-23T07:16:13.760Z,12.84
2023-04-23T07:21:16.634Z,12.91
2023-04-23T07:26:19.461Z,13.19
2023-04-23T07:31:23.878Z,13.23
2023-04-23T07:36:27.739Z,13.58
2023-04-23T07:41:30.787Z,13.97
2023-04-23T07:46:34.963Z,14.52
2023-04-23T07:51:37.802Z,14.63
2023-04-23T07:56:42.716Z,14.67
2023-04-23T08:01:47.899Z,15.04
2023-04-23T08:06:51.020Z,15.47
2023-04-23T08:11:54.552Z,15.64
2023-04-23T08:16:58.838Z,16.00
2023-04-23T08:22:01.809Z,15.99
2023-04-23T08:27:04.784Z,16.14
2023-04-23T08:32:08.953Z,16.33
2023-04-23T08:37:23.221Z,16.17
2023-04-23T08:42:39.588Z,16.06
2023-04-23T08:47:44.376Z,16.95
2023-04-23T08:52:50.880Z,16.71
2023-04-23T08:57:54.096Z,17.12
2023-04-23T09:02:59.794Z,16.61
2023-04-23T09:08:02.904Z,16.72
2023-04-23T09:13:06.052Z,17.10
2023-04-23T09:18:10.795Z,17.47
2023-04-23T09:23:16.136Z,18.50
2023-04-23T09:28:19.006Z,17.98
2023-04-23T09:33:23.368Z,18.34
2023-04-23T09:38:26.740Z,18.67
2023-04-23T09:43:31.746Z,18.16
2023-04-23T09:48:43.251Z,18.46
2023-04-23T09:53:46.485Z,18.69
2023-04-23T09:58:49.446Z,18.54
2023-04-23T10:03:54.589Z,18.63
2023-04-23T10:08:58.123Z,17.68
2023-04-23T10:14:01.734Z,16.90
2023-04-23T10:19:08.896Z,16.67
2023-04-23T10:24:12.506Z,16.72
2023-04-23T10:29:17.284Z,16.35
2023-04-23T10:34:22.029Z,16.39
2023-04-23T10:39:30.044Z,16.52
2023-04-23T10:44:56.504Z,16.62
2023-04-23T10:49:58.836Z,17.52
2023-04-23T10:55:02.002Z,18.47
2023-04-23T11:00:06.118Z,19.35
2023-04-23T11:05:10.603Z,18.63
2023-04-23T11:10:14.651Z,18.31
2023-04-23T11:15:21.192Z,18.74
2023-04-23T11:20:25.380Z,19.28
2023-04-23T11:25:30.334Z,18.88
2023-04-23T11:30:33.667Z,17.81
2023-04-23T11:35:40.813Z,17.40
2023-04-23T11:40:48.490Z,17.41
2023-04-23T11:45:51.342Z,17.48
2023-04-23T11:50:55.784Z,18.47
2023-04-23T11:55:59.571Z,18.40
2023-04-23T12:01:02.502Z,18.73
2023-04-23T12:06:07.782Z,19.01
2023-04-23T12:11:13.070Z,19.15
2023-04-23T12:16:15.894Z,18.80
2023-04-23T12:21:20.170Z,18.24
2023-04-23T12:26:24.945Z,18.52
2023-04-23T12:31:29.651Z,18.57
2023-04-23T12:36:34.855Z,19.24
2023-04-23T12:41:37.861Z,19.55
2023-04-23T12:46:40.751Z,19.85
2023-04-23T12:51:45.267Z,20.04
2023-04-23T12:56:48.118Z,20.61
2023-04-23T13:01:51.603Z,20.30
2023-04-23T13:06:56.594Z,19.42
2023-04-23T13:12:00.144Z,18.87
2023-04-23T13:17:03.488Z,18.95
2023-04-23T13:22:08.071Z,19.99
2023-04-23T13:27:11.216Z,20.56
2023-04-23T13:32:14.546Z,19.88
2023-04-23T13:37:18.750Z,20.71
2023-04-23T13:42:21.566Z,21.44
2023-04-23T13:47:25.101Z,20.36
2023-04-23T13:52:29.314Z,20.02
2023-04-23T13:57:32.198Z,20.66
2023-04-23T14:02:35.367Z,19.64
2023-04-23T14:07:39.810Z,21.33
2023-04-23T14:12:42.685Z,22.52
2023-04-23T14:17:45.940Z,22.25
2023-04-23T14:22:56.250Z,20.71
2023-04-23T14:28:04.984Z,19.38
2023-04-23T14:33:07.924Z,18.62
2023-04-23T14:38:12.265Z,18.62
2023-04-23T14:43:16.150Z,18.51
2023-04-23T14:48:19.317Z,18.34
2023-04-23T14:53:23.484Z,16.17
2023-04-23T14:58:26.412Z,16.40
2023-04-23T15:03:29.395Z,16.79
2023-04-23T15:08:33.715Z,18.54
2023-04-23T15:13:45.338Z,20.83
2023-04-23T15:18:48.099Z,19.95
2023-04-23T15:23:53.720Z,20.47
2023-04-23T15:28:58.156Z,19.85
2023-04-23T15:34:01.069Z,19.22
2023-04-23T15:39:05.902Z,19.64
2023-04-23T15:44:12.099Z,19.00
2023-04-23T15:49:15.126Z,16.74
2023-04-23T15:54:19.271Z,13.30
2023-04-23T15:59:22.060Z,12.93
2023-04-23T16:04:25.083Z,13.48
2023-04-23T16:09:29.419Z,14.14
2023-04-23T16:14:32.479Z,14.54
2023-04-23T16:19:35.383Z,14.75
2023-04-23T16:24:39.510Z,14.91
2023-04-23T16:29:42.658Z,15.05
2023-04-23T16:34:45.624Z,15.11
2023-04-23T16:39:49.784Z,15.08
2023-04-23T16:44:52.596Z,15.03
2023-04-23T16:49:55.489Z,15.05
2023-04-23T16:54:59.692Z,15.09
2023-04-23T17:00:05.011Z,14.95
2023-04-23T17:05:09.217Z,14.86
2023-04-23T17:10:15.336Z,14.79
2023-04-23T17:15:18.346Z,14.70
2023-04-23T17:20:22.032Z,14.68
2023-04-23T17:25:26.235Z,14.79
2023-04-23T17:30:29.333Z,14.77
2023-04-23T17:35:32.132Z,14.64
2023-04-23T17:40:37.446Z,14.69
2023-04-23T17:45:41.156Z,14.66
2023-04-23T17:50:44.806Z,14.46
2023-04-23T17:55:49.012Z,14.05
2023-04-23T18:00:51.891Z,13.82
2023-04-23T18:05:54.989Z,13.37
2023-04-23T18:10:59.202Z,13.34
2023-04-23T18:16:02.081Z,13.13
2023-04-23T18:21:05.835Z,13.04
2023-04-23T18:26:10.240Z,13.11
2023-04-23T18:31:13.449Z,13.13
2023-04-23T18:36:25.006Z,13.06
2023-04-23T18:41:30.121Z,13.06
2023-04-23T18:46:33.172Z,13.05
2023-04-23T18:51:39.681Z,13.07
2023-04-23T18:56:43.861Z,13.10
2023-04-23T19:01:47.991Z,13.18
2023-04-23T19:06:50.824Z,13.14
2023-04-23T19:11:55.411Z,13.13
2023-04-23T19:16:58.301Z,13.07
2023-04-23T19:22:03.349Z,13.02
2023-04-23T19:27:07.797Z,10.92
2023-04-23T19:32:10.713Z,10.29
2023-04-23T19:37:13.643Z,10.21
2023-04-23T19:42:18.291Z,10.68
2023-04-23T19:47:21.178Z,10.89
2023-04-23T19:52:26.802Z,11.18
2023-04-23T19:57:31.108Z,11.26
2023-04-23T20:02:34.095Z,11.47
2023-04-23T20:07:37.194Z,11.52
2023-04-23T20:12:41.625Z,11.38
2023-04-23T20:17:44.422Z,11.30
2023-04-23T20:22:47.279Z,11.22
2023-04-23T20:27:51.922Z,11.34
2023-04-23T20:32:54.812Z,11.21
2023-04-23T20:37:57.791Z,11.21
2023-04-23T20:43:01.969Z,11.00
2023-04-23T20:48:05.466Z,11.08
2023-04-23T20:53:08.600Z,11.09
2023-04-23T20:58:13.353Z,11.19
2023-04-23T21:03:16.626Z,11.23
2023-04-23T21:08:19.923Z,11.13
2023-04-23T21:13:24.703Z,11.21
2023-04-23T21:18:27.920Z,11.31
2023-04-23T21:23:31.143Z,11.23
2023-04-23T21:28:37.015Z,11.28
2023-04-23T21:33:40.050Z,11.27
2023-04-23T21:38:43.270Z,11.39
2023-04-23T21:43:47.452Z,11.48
2023-04-23T21:48:53.464Z,11.45
2023-04-23T21:53:56.304Z,11.51
2023-04-23T21:59:00.514Z,11.57
2023-04-23T22:04:04.191Z,11.35
2023-04-23T22:09:07.379Z,11.43
2023-04-23T22:14:11.636Z,11.31
2023-04-23T22:19:16.054Z,11.45
2023-04-23T22:24:18.824Z,11.39
2023-04-23T22:29:23.082Z,11.40
2023-04-23T22:34:25.967Z,11.33
2023-04-23T22:39:28.801Z,11.36
2023-04-23T22:44:32.909Z,11.34
2023-04-23T22:49:35.944Z,11.28
2023-04-23T22:54:39.064Z,10.99
2023-04-23T22:59:43.576Z,10.93
2023-04-23T23:04:46.766Z,10.80
2023-04-23T23:09:50.129Z,10.78
2023-04-23T23:14:54.286Z,10.71
2023-04-23T23:19:57.118Z,10.90
2023-04-23T23:25:00.170Z,10.67
2023-04-23T23:30:05.835Z,10.78
2023-04-23T23:35:09.291Z,10.44
2023-04-23T23:40:12.690Z,10.68
2023-04-23T23:45:17.068Z,10.56
2023-04-23T23:50:20.074Z,10.27
2023-04-23T23:55:22.830Z,10.47
